Time;durP1;ratioP1;P1;durP2;ratioP2;P2;SDS_P1;SDS_P2;PMS_P1;PMS_P2;Temp;Humidity;BMP_temperature;BMP_pressure;BME280_temperature;BME280_humidity;BME280_pressure;Samples;Min_cycle;Max_cycle;Signal;HPM_P1;HPM_P2
2022/09/07 00:02:22;;;;;;;1.80;1.38;;;;;;;17.74;100.00;98203.69;15298522;19;20033;-79
2022/09/07 00:07:26;;;;;;;3.13;1.50;;;;;;;17.70;100.00;98195.94;15297302;19;20014;-78
2022/09/07 00:12:40;;;;;;;2.88;1.40;;;;;;;17.69;100.00;98193.44;15319055;19;20043;-76
2022/09/07 00:17:45;;;;;;;1.60;1.50;;;;;;;17.67;100.00;98196.34;15347284;19;20043;-78
2022/09/07 00:22:50;;;;;;;1.50;1.40;;;;;;;17.62;100.00;98184.41;15280181;19;20018;-77
2022/09/07 00:27:57;;;;;;;1.48;1.27;;;;;;;17.60;100.00;98178.34;15277559;19;20569;-78
2022/09/07 00:33:02;;;;;;;3.90;1.33;;;;;;;17.58;100.00;98192.19;15287641;19;20011;-79
2022/09/07 00:38:07;;;;;;;4.30;1.60;;;;;;;17.56;100.00;98189.69;15285148;19;20018;-78
2022/09/07 00:43:18;;;;;;;2.33;1.60;;;;;;;17.56;100.00;98188.81;15291626;19;20329;-78
2022/09/07 00:48:26;;;;;;;3.40;1.50;;;;;;;17.55;100.00;98184.41;15289266;19;20010;-80
2022/09/07 00:53:34;;;;;;;1.50;1.40;;;;;;;17.55;100.00;98193.44;15289885;19;20039;-81
2022/09/07 00:58:45;;;;;;;1.98;1.60;;;;;;;17.56;100.00;98194.28;15282430;19;20021;-80
2022/09/07 01:03:53;;;;;;;3.20;1.60;;;;;;;17.55;100.00;98195.31;15296351;19;20015;-81
2022/09/07 01:09:03;;;;;;;2.95;1.60;;;;;;;17.49;100.00;98185.28;15297642;19;20492;-82
2022/09/07 01:14:15;;;;;;;1.85;1.45;;;;;;;17.46;100.00;98194.72;15297271;19;20010;-81
2022/09/07 01:19:33;;;;;;;;;;;;;;;17.41;100.00;98192.59;15292963;19;20014;-78
2022/09/07 01:24:51;;;;;;;2.70;1.40;;;;;;;17.39;100.00;98199.31;15295784;19;19947;-78
2022/09/07 01:30:05;;;;;;;1.70;1.52;;;;;;;17.37;100.00;98198.69;15291268;19;20002;-81
2022/09/07 01:35:16;;;;;;;3.42;1.63;;;;;;;17.34;100.00;98196.41;15292616;19;20014;-78
2022/09/07 01:40:29;;;;;;;3.15;1.65;;;;;;;17.34;100.00;98201.84;15289077;19;20015;-81
2022/09/07 01:45:42;;;;;;;1.85;1.75;;;;;;;17.40;100.00;98203.72;15294892;19;20018;-78
2022/09/07 01:50:53;;;;;;;1.98;1.50;;;;;;;17.48;100.00;98208.13;15278500;19;20007;-77
2022/09/07 01:56:03;;;;;;;1.95;1.58;;;;;;;17.53;100.00;98195.53;15290139;19;20340;-77
2022/09/07 02:01:14;;;;;;;2.05;1.50;;;;;;;17.56;100.00;98195.13;15283022;19;20034;-77
2022/09/07 02:06:21;;;;;;;;;;;;;;;17.54;100.00;98191.75;15293249;19;20025;-77
2022/09/07 02:11:33;;;;;;;2.03;1.70;;;;;;;17.58;100.00;98197.63;15294328;19;19921;-76
2022/09/07 02:16:45;;;;;;;1.60;1.50;;;;;;;17.60;100.00;98195.53;15284784;19;20044;-75
2022/09/07 02:21:57;;;;;;;2.30;1.50;;;;;;;17.65;100.00;98175.81;15291448;19;20021;-76
2022/09/07 02:27:09;;;;;;;3.38;1.70;;;;;;;17.68;100.00;98176.22;15290933;19;20424;-76
2022/09/07 02:32:17;;;;;;;3.10;1.30;;;;;;;17.70;100.00;98178.72;15276064;19;20013;-75
2022/09/07 02:37:22;;;;;;;1.90;1.25;;;;;;;17.76;100.00;98175.16;15283708;19;20035;-74
2022/09/07 02:42:35;;;;;;;2.25;1.48;;;;;;;17.79;100.00;98165.72;15281460;19;20014;-75
2022/09/07 02:47:58;;;;;;;3.20;1.30;;;;;;;17.80;100.00;98157.34;15284960;19;20239;-78
2022/09/07 02:53:21;;;;;;;2.10;1.38;;;;;;;17.79;100.00;98155.66;15298118;19;20021;-81
2022/09/07 02:58:37;;;;;;;3.30;1.30;;;;;;;17.81;100.00;98156.28;15301177;19;20018;-80
2022/09/07 03:03:57;;;;;;;2.03;1.30;;;;;;;17.79;100.00;98149.38;15310836;19;20005;-85
2022/09/07 03:09:09;;;;;;;3.78;1.42;;;;;;;17.70;100.00;98152.34;15307085;19;20035;-81
2022/09/07 03:14:24;;;;;;;1.73;1.50;;;;;;;17.69;100.00;98133.50;15351326;19;20044;-83
2022/09/07 03:19:34;;;;;;;2.13;1.50;;;;;;;17.65;100.00;98137.69;15358285;19;20014;-81
2022/09/07 03:24:39;;;;;;;2.85;1.40;;;;;;;17.62;100.00;98133.50;15304141;19;20018;-82
2022/09/07 03:29:45;;;;;;;2.90;1.50;;;;;;;17.62;100.00;98135.38;15292433;19;20011;-82
2022/09/07 03:34:53;;;;;;;2.03;1.40;;;;;;;17.59;100.00;98146.69;15298902;19;20449;-82
2022/09/07 03:39:57;;;;;;;1.60;1.33;;;;;;;17.55;100.00;98140.84;15289156;19;20360;-82
2022/09/07 03:45:02;;;;;;;2.08;1.50;;;;;;;17.52;100.00;98138.56;15299699;19;20015;-82
2022/09/07 03:50:11;;;;;;;4.25;1.35;;;;;;;17.40;100.00;98141.09;15293709;19;20014;-82
2022/09/07 03:55:16;;;;;;;4.13;1.52;;;;;;;17.44;100.00;98141.50;15297172;19;20034;-83
2022/09/07 04:00:21;;;;;;;1.92;1.20;;;;;;;17.50;100.00;98135.22;15301863;19;20018;-82
2022/09/07 04:05:28;;;;;;;1.52;1.40;;;;;;;17.56;100.00;98131.63;15304997;19;20007;-82
2022/09/07 04:10:33;;;;;;;1.42;1.33;;;;;;;17.59;100.00;98127.63;15303267;19;20031;-81
2022/09/07 04:15:38;;;;;;;1.75;1.38;;;;;;;17.60;100.00;98118.41;15340137;19;20058;-83
2022/09/07 04:20:45;;;;;;;1.58;1.30;;;;;;;17.62;100.00;98128.06;15337946;19;20011;-82
2022/09/07 04:25:51;;;;;;;1.40;1.30;;;;;;;17.60;100.00;98121.13;15295317;19;20034;-80
2022/09/07 04:30:58;;;;;;;2.67;1.45;;;;;;;17.59;100.00;98116.72;15283992;19;20017;-80
2022/09/07 04:36:06;;;;;;;3.70;1.50;;;;;;;17.55;100.00;98116.31;15287000;19;20006;-80
2022/09/07 04:41:14;;;;;;;2.55;1.42;;;;;;;17.52;100.00;98114.88;15285988;19;20018;-82
2022/09/07 04:46:21;;;;;;;2.15;1.50;;;;;;;17.52;100.00;98108.59;15296234;19;20007;-81
2022/09/07 04:51:31;;;;;;;1.90;1.67;;;;;;;17.48;100.00;98097.28;15295961;19;20018;-81
2022/09/07 04:56:35;;;;;;;2.45;1.58;;;;;;;17.44;100.00;98097.94;15298559;19;20054;-81
2022/09/07 05:01:40;;;;;;;1.85;1.60;;;;;;;17.40;100.00;98098.34;15295375;19;20014;-81
2022/09/07 05:06:47;;;;;;;3.45;1.63;;;;;;;17.41;100.00;98112.81;15297448;19;20106;-81
2022/09/07 05:11:52;;;;;;;1.85;1.58;;;;;;;17.39;100.00;98115.75;15293643;19;20628;-81
2022/09/07 05:16:57;;;;;;;2.80;1.50;;;;;;;17.40;100.00;98103.78;15285539;19;20037;-81
2022/09/07 05:22:04;;;;;;;2.38;1.70;;;;;;;17.44;100.00;98104.22;15291134;19;20018;-82
2022/09/07 05:27:09;;;;;;;2.55;1.70;;;;;;;17.49;100.00;98101.69;15293296;19;20409;-82
2022/09/07 05:32:14;;;;;;;2.35;1.52;;;;;;;17.53;100.00;98102.94;15307420;19;20500;-83
2022/09/07 05:37:22;;;;;;;4.47;1.65;;;;;;;17.59;100.00;98106.69;15304570;19;20081;-80
2022/09/07 05:42:27;;;;;;;1.55;1.42;;;;;;;17.65;100.00;98113.16;15299712;19;20018;-81
2022/09/07 05:47:32;;;;;;;1.70;1.60;;;;;;;17.67;100.00;98109.16;15287971;19;20047;-83
2022/09/07 05:52:39;;;;;;;1.83;1.60;;;;;;;17.71;100.00;98104.97;15306421;19;20038;-81
2022/09/07 05:57:44;;;;;;;3.15;1.50;;;;;;;17.67;100.00;98119.25;15301900;19;20463;-82
2022/09/07 06:02:48;;;;;;;2.13;1.50;;;;;;;17.69;100.00;98111.69;15304616;19;20007;-82
2022/09/07 06:07:56;;;;;;;2.47;1.77;;;;;;;17.71;100.00;98115.00;15301209;19;20088;-82
2022/09/07 06:13:01;;;;;;;2.70;1.60;;;;;;;17.75;100.00;98116.28;15303460;19;20373;-80
2022/09/07 06:18:05;;;;;;;3.15;1.60;;;;;;;17.83;100.00;98113.28;15293378;19;20750;-82
2022/09/07 06:23:13;;;;;;;3.10;1.58;;;;;;;17.93;100.00;98112.03;15303312;19;20011;-82
2022/09/07 06:28:18;;;;;;;3.58;1.50;;;;;;;18.02;100.00;98108.84;15292269;19;20042;-81
2022/09/07 06:33:23;;;;;;;3.85;1.67;;;;;;;18.18;100.00;98115.66;15300653;19;20386;-81
2022/09/07 06:38:31;;;;;;;1.83;1.60;;;;;;;18.31;100.00;98119.38;15292243;19;20013;-80
2022/09/07 06:43:37;;;;;;;2.65;1.88;;;;;;;18.40;100.00;98145.34;15298423;19;20002;-80
2022/09/07 06:48:47;;;;;;;5.15;1.88;;;;;;;18.44;100.00;98132.94;15299301;19;20062;-81
2022/09/07 06:54:00;;;;;;;2.30;2.10;;;;;;;18.47;100.00;98140.69;15292193;19;20010;-81
2022/09/07 06:59:25;;;;;;;2.55;2.00;;;;;;;18.55;100.00;98125.97;15299778;19;20014;-81
2022/09/07 07:04:29;;;;;;;3.22;1.90;;;;;;;18.63;100.00;98124.84;15305109;19;20100;-81
2022/09/07 07:09:39;;;;;;;2.83;1.90;;;;;;;18.74;100.00;98136.94;15305426;19;20050;-80
2022/09/07 07:14:44;;;;;;;1.95;1.85;;;;;;;18.79;100.00;98127.03;15303784;19;20006;-81
2022/09/07 07:19:48;;;;;;;4.13;1.85;;;;;;;18.94;100.00;98118.53;15297894;19;20014;-80
2022/09/07 07:24:56;;;;;;;3.33;1.60;;;;;;;19.14;100.00;98112.06;15292136;19;20478;-81
2022/09/07 07:30:00;;;;;;;2.15;1.60;;;;;;;19.32;100.00;98111.28;15300262;19;20448;-80
2022/09/07 07:35:07;;;;;;;3.08;1.65;;;;;;;19.50;100.00;98115.91;15308654;19;20025;-81
2022/09/07 07:40:15;;;;;;;2.70;1.60;;;;;;;19.71;100.00;98113.78;15289835;19;20031;-80
2022/09/07 07:45:27;;;;;;;3.05;1.75;;;;;;;19.98;100.00;98113.50;15299829;19;20432;-80
2022/09/07 07:50:58;;;;;;;2.45;1.80;;;;;;;20.20;100.00;98123.94;15296282;19;20082;-81
2022/09/07 07:56:12;;;;;;;3.60;1.85;;;;;;;20.31;100.00;98134.91;15286880;19;20090;-79
2022/09/07 08:01:18;;;;;;;3.92;1.65;;;;;;;20.42;100.00;98122.34;15298411;19;20013;-81
2022/09/07 08:06:23;;;;;;;4.47;1.60;;;;;;;20.67;100.00;98120.50;15299569;19;20019;-80
2022/09/07 08:11:30;;;;;;;3.00;1.60;;;;;;;20.88;100.00;98119.16;15300219;19;20006;-80
2022/09/07 08:16:36;;;;;;;3.92;1.48;;;;;;;21.10;100.00;98122.19;15307780;19;20073;-80
2022/09/07 08:21:41;;;;;;;2.88;1.30;;;;;;;21.34;100.00;98111.22;15357061;19;20010;-76
2022/09/07 08:26:49;;;;;;;4.72;1.30;;;;;;;21.54;100.00;98117.16;15294233;19;20017;-79
2022/09/07 08:31:54;;;;;;;2.63;1.40;;;;;;;21.84;100.00;98115.34;15289254;19;20025;-81
2022/09/07 08:37:00;;;;;;;2.47;1.40;;;;;;;21.99;100.00;98109.31;15285001;19;20607;-81
2022/09/07 08:42:18;;;;;;;3.15;1.38;;;;;;;22.08;100.00;98116.09;15284901;19;20064;-80
2022/09/07 08:47:31;;;;;;;3.75;1.40;;;;;;;22.21;100.00;98120.47;15292227;19;20015;-81
2022/09/07 08:52:44;;;;;;;3.65;1.30;;;;;;;22.34;100.00;98129.50;15310624;19;20011;-77
2022/09/07 08:58:01;;;;;;;9.35;1.85;;;;;;;22.57;100.00;98123.06;15349759;19;20010;-78
2022/09/07 09:03:07;;;;;;;4.20;1.52;;;;;;;22.69;100.00;98137.56;15280023;19;20011;-81
2022/09/07 09:08:47;;;;;;;5.30;1.60;;;;;;;22.59;100.00;98132.72;15276795;19;20463;-78
2022/09/07 09:14:03;;;;;;;3.43;1.50;;;;;;;22.59;100.00;98126.41;15284332;19;20015;-79
2022/09/07 09:19:18;;;;;;;2.75;1.60;;;;;;;22.58;100.00;98138.47;15282633;19;20013;-80
2022/09/07 09:24:31;;;;;;;3.78;1.58;;;;;;;22.66;100.00;98129.81;15283104;19;20031;-81
2022/09/07 09:29:38;;;;;;;4.53;1.90;;;;;;;22.81;100.00;98134.78;15285377;19;20015;-81
2022/09/07 09:35:02;;;;;;;4.45;1.90;;;;;;;22.85;100.00;98130.41;15281059;19;20035;-82
2022/09/07 09:40:08;;;;;;;3.83;1.63;;;;;;;23.02;100.00;98126.84;15281316;19;20015;-80
2022/09/07 09:45:19;;;;;;;3.75;1.60;;;;;;;23.15;100.00;98118.28;15286037;19;20429;-80
2022/09/07 09:50:28;;;;;;;5.47;1.70;;;;;;;23.24;100.00;98111.31;15285411;19;20014;-81
2022/09/07 09:55:54;;;;;;;3.88;1.70;;;;;;;23.31;100.00;98100.13;15284448;19;20023;-81
2022/09/07 10:01:03;;;;;;;4.20;1.80;;;;;;;23.42;100.00;98100.28;15279662;19;20043;-82
2022/09/07 10:06:27;;;;;;;4.75;1.80;;;;;;;23.55;100.00;98099.91;15269454;19;20896;-82
2022/09/07 10:11:45;;;;;;;2.67;1.40;;;;;;;23.74;100.00;98096.84;15279577;19;20017;-82
2022/09/07 10:17:21;;;;;;;3.00;1.50;;;;;;;23.95;100.00;98093.28;15290274;19;20021;-83
2022/09/07 10:22:33;;;;;;;3.78;1.40;;;;;;;24.16;100.00;98093.56;15297966;19;20021;-80
2022/09/07 10:27:40;;;;;;;2.85;1.27;;;;;;;24.34;100.00;98094.28;15295248;19;20014;-82
2022/09/07 10:33:00;;;;;;;1.95;1.10;;;;;;;24.47;100.00;98086.41;15294385;19;20019;-82
2022/09/07 10:38:16;;;;;;;3.63;1.20;;;;;;;24.67;100.00;98081.34;15286269;19;20017;-83
2022/09/07 10:43:31;;;;;;;2.65;1.15;;;;;;;24.90;100.00;98086.53;15298755;19;20817;-82
2022/09/07 10:48:45;;;;;;;3.10;1.08;;;;;;;24.99;100.00;98077.81;15291035;19;20022;-82
2022/09/07 10:54:02;;;;;;;2.47;1.10;;;;;;;25.28;100.00;98077.44;15299098;19;20011;-80
2022/09/07 10:59:35;;;;;;;3.78;1.10;;;;;;;25.50;100.00;98064.38;15291824;19;20117;-80
2022/09/07 11:05:16;;;;;;;2.17;1.02;;;;;;;25.72;100.00;98063.34;15292110;19;20025;-81
2022/09/07 11:10:31;;;;;;;3.72;1.10;;;;;;;25.80;100.00;98064.78;15283727;19;20006;-80
2022/09/07 11:15:44;;;;;;;2.22;0.98;;;;;;;25.94;100.00;98062.31;15298143;19;20043;-81
2022/09/07 11:20:57;;;;;;;3.53;1.00;;;;;;;26.01;100.00;98049.13;15296490;19;20010;-79
2022/09/07 11:26:10;;;;;;;2.47;1.10;;;;;;;25.96;100.00;98054.63;15295075;19;20014;-81
2022/09/07 11:31:22;;;;;;;6.03;1.38;;;;;;;25.46;100.00;98060.47;15298462;19;20018;-83
2022/09/07 11:36:36;;;;;;;9.93;1.73;;;;;;;24.29;100.00;98070.28;15296001;19;20027;-85
2022/09/07 11:41:47;;;;;;;10.23;2.50;;;;;;;23.04;100.00;98076.06;15282145;19;20057;-81
2022/09/07 11:46:55;;;;;;;4.70;1.58;;;;;;;22.38;100.00;98068.38;15296729;19;20046;-85
2022/09/07 11:52:07;;;;;;;3.70;1.30;;;;;;;22.04;100.00;98065.56;15293329;19;20420;-81
2022/09/07 11:57:37;;;;;;;4.40;1.48;;;;;;;21.71;100.00;98064.34;15293472;19;20031;-80
2022/09/07 12:03:05;;;;;;;3.38;1.52;;;;;;;21.76;100.00;98048.00;15289929;19;20018;-81
2022/09/07 12:08:28;;;;;;;4.57;1.40;;;;;;;21.80;100.00;98054.66;15282617;19;20691;-80
2022/09/07 12:13:57;;;;;;;3.78;1.20;;;;;;;21.87;100.00;98054.53;15283497;19;20014;-81
2022/09/07 12:19:27;;;;;;;4.60;1.35;;;;;;;22.06;100.00;98052.41;15292367;19;20030;-80
2022/09/07 12:24:47;;;;;;;3.78;1.10;;;;;;;22.54;100.00;98041.19;15295684;19;20030;-81
2022/09/07 12:30:13;;;;;;;2.80;1.25;;;;;;;22.78;100.00;98048.19;15298131;19;20035;-81
2022/09/07 12:35:40;;;;;;;3.00;1.38;;;;;;;23.00;100.00;98039.19;15304057;19;20014;-80
2022/09/07 12:41:00;;;;;;;3.38;1.20;;;;;;;23.14;100.00;98038.84;15344189;19;20007;-80
2022/09/07 12:46:05;;;;;;;3.17;1.40;;;;;;;23.35;100.00;98040.81;15287847;19;20018;-80
2022/09/07 12:51:27;;;;;;;2.45;1.20;;;;;;;23.48;100.00;98045.13;15287789;19;20014;-80
2022/09/07 12:56:59;;;;;;;3.58;1.10;;;;;;;23.65;100.00;98031.31;15288516;19;20027;-82
2022/09/07 13:02:42;;;;;;;3.30;1.63;;;;;;;23.98;100.00;98032.25;15284168;19;20031;-83
2022/09/07 13:08:10;;;;;;;2.72;1.10;;;;;;;24.11;100.00;98013.69;15281733;19;20019;-82
2022/09/07 13:13:28;;;;;;;2.80;1.10;;;;;;;24.54;100.00;98000.84;15280030;19;20483;-82
2022/09/07 13:18:53;;;;;;;3.22;1.13;;;;;;;25.00;100.00;98005.03;15287760;19;20013;-83
2022/09/07 13:24:27;;;;;;;2.78;1.10;;;;;;;25.30;100.00;98003.56;15286363;19;20475;-82
2022/09/07 13:29:57;;;;;;;2.80;1.10;;;;;;;25.87;100.00;97987.25;15287130;19;20074;-85
2022/09/07 13:35:12;;;;;;;2.55;1.00;;;;;;;26.14;100.00;97987.91;15287492;19;20039;-82
2022/09/07 13:40:22;;;;;;;4.57;1.40;;;;;;;26.34;100.00;97972.44;15279130;19;20348;-82
2022/09/07 13:46:00;;;;;;;1.50;0.90;;;;;;;26.51;100.00;97968.59;15283552;19;20015;-81
2022/09/07 13:51:10;;;;;;;1.42;1.00;;;;;;;26.60;100.00;97975.22;15291453;19;20014;-82
2022/09/07 13:56:30;;;;;;;3.78;0.98;;;;;;;26.18;100.00;97979.03;15298181;19;20377;-83
2022/09/07 14:01:45;;;;;;;1.83;0.90;;;;;;;26.13;100.00;97966.06;15299762;19;20019;-81
2022/09/07 14:06:49;;;;;;;1.60;0.80;;;;;;;25.97;100.00;97963.28;15299341;19;20018;-80
2022/09/07 14:11:55;;;;;;;1.10;0.85;;;;;;;25.88;100.00;97966.84;15300238;19;20602;-81
2022/09/07 14:17:09;;;;;;;1.63;0.90;;;;;;;25.84;100.00;97961.88;15303148;19;20046;-79
2022/09/07 14:22:17;;;;;;;4.10;1.00;;;;;;;25.78;100.00;97962.97;15295266;19;20015;-84
2022/09/07 14:27:24;;;;;;;2.25;1.00;;;;;;;25.81;100.00;97962.41;15304879;19;20027;-82
2022/09/07 14:32:39;;;;;;;1.85;1.02;;;;;;;25.89;100.00;97947.25;15312508;19;20022;-84
2022/09/07 14:37:45;;;;;;;4.18;1.00;;;;;;;25.90;100.00;97948.91;15352795;19;20017;-82
2022/09/07 14:42:54;;;;;;;2.45;1.00;;;;;;;25.83;100.00;97935.38;15322636;19;20015;-84
2022/09/07 14:48:12;;;;;;;4.25;1.00;;;;;;;25.75;100.00;97927.63;15296715;19;20013;-84
2022/09/07 14:53:20;;;;;;;1.27;1.00;;;;;;;25.51;100.00;97944.69;15289039;19;20716;-83
2022/09/07 14:58:40;;;;;;;4.82;1.17;;;;;;;25.38;100.00;97936.88;15290754;19;20405;-85
2022/09/07 15:04:01;;;;;;;2.45;1.10;;;;;;;25.27;100.00;97938.78;15298579;19;20015;-85
2022/09/07 15:09:08;;;;;;;1.55;1.25;;;;;;;25.22;100.00;97947.88;15294943;19;20021;-83
2022/09/07 15:14:21;;;;;;;1.27;1.00;;;;;;;25.14;100.00;97964.06;15298312;19;20373;-84
2022/09/07 15:19:33;;;;;;;3.70;1.10;;;;;;;24.91;100.00;97982.69;15297128;19;20031;-84
2022/09/07 15:24:38;;;;;;;3.05;1.08;;;;;;;24.51;100.00;98001.38;15320041;19;20161;-86
2022/09/07 15:29:56;;;;;;;4.50;1.50;;;;;;;24.12;100.00;97987.81;15312150;19;20013;-90
2022/09/07 15:35:09;;;;;;;6.45;1.33;;;;;;;23.92;100.00;98003.00;15311583;19;20034;-86
2022/09/07 15:40:22;;;;;;;5.82;1.38;;;;;;;23.19;100.00;98030.66;15323285;19;20018;-87
2022/09/07 15:45:29;;;;;;;1.88;0.77;;;;;;;22.49;100.00;98038.38;15334908;19;20014;-87
2022/09/07 15:50:40;;;;;;;2.38;0.80;;;;;;;21.73;100.00;98031.22;15325857;19;20021;-86
2022/09/07 15:55:54;;;;;;;2.35;0.60;;;;;;;21.27;100.00;97998.16;15318839;19;20629;-86
2022/09/07 16:01:04;;;;;;;2.72;0.40;;;;;;;21.50;100.00;97948.78;15296707;19;20850;-86
2022/09/07 16:06:32;;;;;;;1.92;0.57;;;;;;;22.06;100.00;97942.69;15309889;19;20391;-87
2022/09/07 16:11:46;;;;;;;1.40;0.40;;;;;;;22.32;100.00;97932.97;15312430;19;20089;-85
2022/09/07 16:22:37;;;;;;;2.33;0.40;;;;;;;23.29;100.00;97931.91;15303820;19;20013;-86
2022/09/07 16:28:02;;;;;;;1.08;0.50;;;;;;;23.73;100.00;97931.00;15301302;19;20018;-87
2022/09/07 16:33:12;;;;;;;0.88;0.50;;;;;;;23.81;100.00;97943.47;15329233;19;20351;-89
2022/09/07 16:38:20;;;;;;;1.95;0.60;;;;;;;23.83;100.00;97936.63;15310624;19;20029;-85
2022/09/07 16:43:46;;;;;;;2.75;0.85;;;;;;;23.70;100.00;97950.78;15293635;19;20838;-83
2022/09/07 16:48:52;;;;;;;1.80;0.90;;;;;;;23.63;100.00;97947.41;15291851;19;20010;-83
2022/09/07 16:54:05;;;;;;;1.77;0.70;;;;;;;23.41;100.00;97966.66;15304171;19;20299;-82
2022/09/07 16:59:24;;;;;;;1.58;0.70;;;;;;;23.30;100.00;97965.69;15345094;19;20011;-83
2022/09/07 17:04:29;;;;;;;2.63;0.82;;;;;;;23.19;100.00;97957.31;15290322;19;20017;-82
2022/09/07 17:09:36;;;;;;;1.75;0.90;;;;;;;23.13;100.00;97965.72;15284108;19;20078;-82
2022/09/07 17:14:41;;;;;;;2.20;1.00;;;;;;;22.94;100.00;97966.03;15283746;19;20022;-81
2022/09/07 17:19:46;;;;;;;3.42;1.00;;;;;;;22.69;100.00;97967.31;15281330;19;20014;-81
2022/09/07 17:24:53;;;;;;;1.65;1.00;;;;;;;22.44;100.00;97949.38;15292754;19;20314;-81
2022/09/07 17:29:58;;;;;;;2.42;1.13;;;;;;;22.27;100.00;97938.38;15300743;19;20015;-81
2022/09/07 17:35:03;;;;;;;2.35;1.10;;;;;;;22.04;100.00;97942.13;15290974;19;20021;-81
2022/09/07 17:40:11;;;;;;;2.30;1.00;;;;;;;21.86;100.00;97954.16;15295466;19;20535;-82
2022/09/07 17:45:16;;;;;;;2.42;1.05;;;;;;;21.70;100.00;97962.06;15292243;19;20010;-79
2022/09/07 17:50:21;;;;;;;1.67;1.05;;;;;;;21.55;100.00;97954.38;15295708;19;20031;-79
2022/09/07 17:55:28;;;;;;;3.60;1.00;;;;;;;21.31;100.00;97959.06;15292659;19;20366;-80
2022/09/07 18:00:33;;;;;;;1.73;0.90;;;;;;;21.11;100.00;97951.25;15292691;19;20007;-81
2022/09/07 18:05:38;;;;;;;2.15;0.90;;;;;;;20.99;100.00;97956.78;15289160;19;20326;-84
2022/09/07 18:10:45;;;;;;;2.28;0.90;;;;;;;20.84;100.00;97968.22;15292797;19;20011;-82
2022/09/07 18:16:14;;;;;;;1.67;0.90;;;;;;;20.50;100.00;97987.13;15299044;19;20019;-83
2022/09/07 18:21:22;;;;;;;2.08;0.95;;;;;;;20.40;100.00;98001.38;15301724;19;20022;-83
2022/09/07 18:26:30;;;;;;;3.38;1.17;;;;;;;20.28;100.00;98001.38;15306634;19;20018;-78
2022/09/07 18:31:35;;;;;;;0.95;0.70;;;;;;;20.17;100.00;97999.41;15282249;19;20382;-75
2022/09/07 18:36:40;;;;;;;1.38;0.80;;;;;;;20.02;100.00;97997.97;15283183;19;20021;-74
2022/09/07 18:41:50;;;;;;;2.90;1.10;;;;;;;19.93;100.00;97993.06;15271155;19;21184;-76
2022/09/07 18:46:56;;;;;;;2.10;0.70;;;;;;;19.76;100.00;97982.72;15282062;19;20031;-74
2022/09/07 18:52:01;;;;;;;1.75;0.90;;;;;;;19.57;100.00;97998.34;15286747;19;20006;-76
2022/09/07 18:57:28;;;;;;;1.27;0.77;;;;;;;19.43;100.00;98005.03;15284093;19;20014;-76
2022/09/07 19:02:32;;;;;;;1.67;0.80;;;;;;;19.35;100.00;97996.06;15282381;19;20492;-77
2022/09/07 19:07:37;;;;;;;1.30;0.70;;;;;;;19.34;100.00;97982.66;15283267;19;20464;-76
2022/09/07 19:12:45;;;;;;;1.85;0.80;;;;;;;19.34;100.00;97975.31;15275246;19;20324;-75
2022/09/07 19:17:50;;;;;;;1.70;0.70;;;;;;;19.35;100.00;97978.88;15287116;19;20010;-76
2022/09/07 19:22:55;;;;;;;2.10;0.80;;;;;;;19.28;100.00;97980.84;15285050;19;20003;-79
2022/09/07 19:28:02;;;;;;;1.00;0.70;;;;;;;19.25;100.00;97982.13;15290765;19;20018;-76
2022/09/07 19:33:10;;;;;;;2.03;0.65;;;;;;;19.24;100.00;97980.47;14785706;19;9999871;-80
2022/09/07 19:38:16;;;;;;;1.50;0.63;;;;;;;19.21;100.00;97976.28;15289167;19;20495;-80
2022/09/07 19:43:23;;;;;;;2.17;0.60;;;;;;;19.24;100.00;97958.59;15284140;19;20014;-80
2022/09/07 19:48:28;;;;;;;1.73;0.50;;;;;;;19.29;100.00;97975.16;15282258;19;20003;-80
2022/09/07 19:53:34;;;;;;;2.38;0.80;;;;;;;19.31;100.00;97969.44;15267323;19;20727;-80
2022/09/07 19:58:43;;;;;;;1.92;0.70;;;;;;;19.28;100.00;97959.00;15284414;19;20010;-77
2022/09/07 20:03:49;;;;;;;2.70;0.95;;;;;;;19.27;100.00;97968.25;15284060;19;20014;-85
2022/09/07 20:08:56;;;;;;;3.83;1.27;;;;;;;19.07;100.00;97963.84;15329921;19;20022;-82
2022/09/07 20:14:05;;;;;;;2.65;1.10;;;;;;;18.92;100.00;97956.88;15300743;19;20021;-81
2022/09/07 20:19:09;;;;;;;2.40;0.70;;;;;;;18.80;100.00;97966.88;15282260;19;20022;-81
2022/09/07 20:24:20;;;;;;;1.90;0.80;;;;;;;18.68;100.00;97972.22;15291434;19;20010;-80
2022/09/07 20:29:31;;;;;;;3.15;0.90;;;;;;;18.46;100.00;97983.53;15332966;19;20003;-79
2022/09/07 20:34:36;;;;;;;2.25;1.00;;;;;;;18.23;100.00;97977.88;15330044;19;20007;-81
2022/09/07 20:39:41;;;;;;;1.88;0.95;;;;;;;18.08;100.00;97976.28;15313960;19;20011;-81
2022/09/07 20:44:48;;;;;;;3.30;1.20;;;;;;;18.03;100.00;97976.13;15292828;19;20010;-81
2022/09/07 20:49:53;;;;;;;1.08;0.80;;;;;;;17.99;100.00;97991.25;15287403;19;20011;-82
2022/09/07 20:55:11;;;;;;;1.85;0.90;;;;;;;18.00;100.00;97977.38;15301310;19;20022;-80
2022/09/07 21:00:18;;;;;;;1.92;0.88;;;;;;;17.96;100.00;97981.59;15312393;19;20010;-79
2022/09/07 21:05:23;;;;;;;1.85;0.93;;;;;;;17.86;100.00;97975.78;15314659;19;20014;-80
2022/09/07 21:10:28;;;;;;;1.38;0.95;;;;;;;17.84;100.00;97973.28;15328563;19;20010;-80
2022/09/07 21:15:38;;;;;;;1.27;0.80;;;;;;;17.74;100.00;97959.28;15277402;19;20022;-79
2022/09/07 21:20:43;;;;;;;1.48;0.88;;;;;;;17.64;100.00;97964.41;15275690;19;20054;-80
2022/09/07 21:26:08;;;;;;;2.50;0.90;;;;;;;17.58;100.00;97979.72;15282485;19;20366;-79
2022/09/07 21:31:16;;;;;;;4.97;1.20;;;;;;;17.52;100.00;97986.88;15281933;19;20018;-80
2022/09/07 21:36:21;;;;;;;3.33;0.90;;;;;;;17.52;100.00;97970.53;15279055;19;20011;-82
2022/09/07 21:41:26;;;;;;;1.88;0.73;;;;;;;17.50;100.00;97961.75;15279251;19;20018;-80
2022/09/07 21:46:36;;;;;;;1.13;0.70;;;;;;;17.51;100.00;97968.84;15281040;19;20035;-80
2022/09/07 21:51:41;;;;;;;2.80;1.08;;;;;;;17.42;100.00;97962.00;15278980;19;20222;-80
2022/09/07 21:56:45;;;;;;;2.30;1.00;;;;;;;17.34;100.00;97962.25;15277303;19;20022;-81
2022/09/07 22:01:53;;;;;;;1.33;0.90;;;;;;;17.33;100.00;97968.75;15281913;19;20029;-80
2022/09/07 22:06:57;;;;;;;2.50;0.98;;;;;;;17.28;100.00;97958.50;15282964;19;20096;-81
2022/09/07 22:12:02;;;;;;;2.30;1.10;;;;;;;17.24;100.00;97952.63;15300166;19;20462;-81
2022/09/07 22:17:09;;;;;;;1.73;0.93;;;;;;;17.24;100.00;97941.75;15302583;19;20080;-81
2022/09/07 22:22:14;;;;;;;1.90;0.85;;;;;;;17.23;100.00;97942.78;15299476;19;20018;-81
2022/09/07 22:27:19;;;;;;;2.00;0.90;;;;;;;17.22;100.00;97933.00;15288240;19;20014;-82
2022/09/07 22:32:26;;;;;;;1.52;0.98;;;;;;;17.17;100.00;97923.81;15296591;19;20011;-81
2022/09/07 22:37:31;;;;;;;3.55;0.90;;;;;;;17.14;100.00;97919.59;15293801;19;20014;-81
2022/09/07 22:42:36;;;;;;;1.63;0.90;;;;;;;17.14;100.00;97925.03;15291773;19;20487;-83
2022/09/07 22:47:43;;;;;;;1.52;0.80;;;;;;;17.16;100.00;97924.84;15292832;19;20010;-81
2022/09/07 22:52:49;;;;;;;2.05;0.90;;;;;;;17.13;100.00;97926.09;15293101;19;20495;-82
2022/09/07 22:57:54;;;;;;;3.42;1.00;;;;;;;17.12;100.00;97921.69;15281247;19;20010;-83
2022/09/07 23:03:02;;;;;;;4.50;1.10;;;;;;;17.12;100.00;97913.53;15288683;19;20299;-83
2022/09/07 23:08:07;;;;;;;4.18;0.95;;;;;;;17.13;100.00;97919.81;15290784;19;20014;-83
2022/09/07 23:13:14;;;;;;;3.08;0.90;;;;;;;17.01;100.00;97923.22;15296127;19;20345;-79
2022/09/07 23:18:23;;;;;;;3.00;1.00;;;;;;;16.94;100.00;97925.13;15293431;19;20023;-80
2022/09/07 23:23:28;;;;;;;2.60;0.88;;;;;;;16.92;100.00;97927.22;15293747;19;20011;-80
2022/09/07 23:28:33;;;;;;;1.38;0.90;;;;;;;16.90;100.00;97921.97;15286277;19;20042;-80
2022/09/07 23:33:41;;;;;;;2.35;1.17;;;;;;;16.88;100.00;97909.63;15292237;19;20014;-80
2022/09/07 23:38:46;;;;;;;1.88;0.90;;;;;;;16.86;100.00;97909.84;15292308;19;20023;-79
2022/09/07 23:43:51;;;;;;;2.08;1.00;;;;;;;16.85;100.00;97915.50;15293774;19;20022;-80
2022/09/07 23:48:58;;;;;;;1.42;1.00;;;;;;;16.83;100.00;97902.13;15293023;19;20027;-80
2022/09/07 23:54:03;;;;;;;2.20;1.17;;;;;;;16.77;100.00;97895.66;15295887;19;20110;-81